Time;durP1;ratioP1;P1;durP2;ratioP2;P2;SDS_P1;SDS_P2;PMS_P1;PMS_P2;Temp;Humidity;BMP_temperature;BMP_pressure;BME280_temperature;BME280_humidity;BME280_pressure;Samples;Min_cycle;Max_cycle;Signal;HPM_P1;HPM_P2
2020/12/17 00:00:44;;;;;;;1999.90;999.90;;;;;;;6.69;71.41;98982.16;5028176;28;20180;-65
2020/12/17 00:03:10;;;;;;;1999.90;999.90;;;;;;;6.31;72.58;98984.56;5028427;28;20064;-65
2020/12/17 00:05:36;;;;;;;1999.90;999.90;;;;;;;6.56;71.79;98984.72;5027727;28;20385;-65
2020/12/17 00:08:02;;;;;;;1999.90;999.90;;;;;;;6.28;72.49;98989.78;5027929;28;20057;-65
2020/12/17 00:10:29;;;;;;;1999.90;999.90;;;;;;;6.29;72.51;98983.19;5027409;28;20071;-65
2020/12/17 00:12:55;;;;;;;1999.90;999.90;;;;;;;6.35;72.21;98991.13;5024212;28;20053;-66
2020/12/17 00:15:21;;;;;;;1999.90;999.90;;;;;;;6.39;72.33;98998.81;5020319;28;20566;-65
2020/12/17 00:17:50;;;;;;;1999.90;999.90;;;;;;;6.55;71.70;98992.13;5024087;28;20057;-65
2020/12/17 00:20:20;;;;;;;1999.90;999.90;;;;;;;6.38;72.17;98989.75;5020707;28;20050;-65
2020/12/17 00:22:46;;;;;;;1999.90;999.90;;;;;;;6.33;72.51;98995.28;5023735;28;20378;-65
2020/12/17 00:25:15;;;;;;;1999.90;999.90;;;;;;;6.57;71.48;98994.59;5021472;28;20111;-65
2020/12/17 00:27:42;;;;;;;1999.90;999.90;;;;;;;6.56;71.23;98993.75;5023894;28;20057;-65
2020/12/17 00:30:11;;;;;;;1999.90;999.90;;;;;;;6.47;71.74;98992.72;5022872;28;20045;-65
2020/12/17 00:32:38;;;;;;;1999.90;999.90;;;;;;;6.59;71.40;98993.19;5022508;28;20052;-63
2020/12/17 00:35:05;;;;;;;1999.90;999.90;;;;;;;6.17;73.01;98983.53;5023986;28;20184;-64
2020/12/17 00:37:32;;;;;;;1999.90;999.90;;;;;;;6.08;73.13;98994.25;5023409;28;20610;-64
2020/12/17 00:39:59;;;;;;;1999.90;999.90;;;;;;;6.32;72.46;98999.94;5024107;28;20103;-64
2020/12/17 00:42:25;;;;;;;1999.90;999.90;;;;;;;6.40;72.13;98989.47;5021972;28;20049;-64
2020/12/17 00:44:51;;;;;;;1999.90;999.90;;;;;;;6.43;72.19;98989.72;5024502;28;20365;-64
2020/12/17 00:47:18;;;;;;;1999.90;999.90;;;;;;;6.22;72.57;98988.97;5021092;28;20115;-64
2020/12/17 00:49:45;;;;;;;1999.90;999.90;;;;;;;5.94;73.65;98991.28;5022743;28;20319;-64
2020/12/17 00:52:11;;;;;;;1999.90;999.90;;;;;;;5.94;74.17;98998.66;5022703;28;20440;-64
2020/12/17 00:54:39;;;;;;;1999.90;999.90;;;;;;;6.24;73.09;98991.44;5020189;28;20053;-64
2020/12/17 00:57:05;;;;;;;1999.90;999.90;;;;;;;6.09;73.61;98984.09;5023599;28;20326;-64
2020/12/17 00:59:31;;;;;;;1999.90;999.90;;;;;;;6.04;73.71;98989.63;5023406;28;20211;-64
2020/12/17 01:01:57;;;;;;;1999.90;999.90;;;;;;;6.16;73.18;98992.84;5026854;28;20492;-64
2020/12/17 01:04:24;;;;;;;1999.90;999.90;;;;;;;6.33;72.57;98993.34;5027022;28;20120;-63
2020/12/17 01:07:02;;;;;;;1999.90;999.90;;;;;;;6.25;73.01;98993.94;5026695;28;20053;-64
2020/12/17 01:09:28;;;;;;;1999.90;999.90;;;;;;;6.37;72.55;98992.78;5026928;28;20076;-64
2020/12/17 01:11:54;;;;;;;1999.90;999.90;;;;;;;6.37;72.81;98992.78;5026685;28;20057;-64
2020/12/17 01:14:21;;;;;;;1999.90;999.90;;;;;;;6.37;72.73;98985.34;5026826;28;20060;-64
2020/12/17 01:16:48;;;;;;;1999.90;999.90;;;;;;;6.44;72.12;98968.56;5026606;28;20058;-64
2020/12/17 01:19:14;;;;;;;1999.90;999.90;;;;;;;6.21;72.68;98981.03;5012962;28;20187;-64
2020/12/17 01:21:41;;;;;;;1999.90;999.90;;;;;;;6.20;72.66;98988.44;5026343;28;20439;-64
2020/12/17 01:24:07;;;;;;;1999.90;999.90;;;;;;;6.04;73.12;98978.63;5019550;28;20114;-64
2020/12/17 01:26:33;;;;;;;1999.90;999.90;;;;;;;6.19;73.27;98989.53;5016365;28;20054;-64
2020/12/17 01:28:59;;;;;;;1999.90;999.90;;;;;;;6.26;72.58;98987.31;5015813;28;20049;-64
2020/12/17 01:31:25;;;;;;;1999.90;999.90;;;;;;;6.25;72.91;98982.13;5018102;28;20135;-64
2020/12/17 01:33:51;;;;;;;1999.90;999.90;;;;;;;6.26;72.74;98981.03;5045084;28;20049;-64
2020/12/17 01:36:17;;;;;;;1999.90;999.90;;;;;;;6.27;72.54;98980.75;5019772;28;20049;-64
2020/12/17 01:38:43;;;;;;;1999.90;999.90;;;;;;;6.19;72.96;98984.06;5013915;28;20112;-64
2020/12/17 01:41:13;;;;;;;1999.90;999.90;;;;;;;6.16;73.26;98979.13;5017907;28;20038;-64
2020/12/17 01:43:44;;;;;;;1999.90;999.90;;;;;;;6.21;73.18;98992.84;5014771;28;20073;-64
2020/12/17 01:46:12;;;;;;;1999.90;999.90;;;;;;;6.22;72.89;98983.50;5017356;28;20064;-64
2020/12/17 01:48:39;;;;;;;1999.90;999.90;;;;;;;6.04;73.41;98981.38;5015494;28;20488;-64
2020/12/17 01:51:07;;;;;;;1999.90;999.90;;;;;;;6.13;73.11;98974.19;5015522;28;20057;-65
2020/12/17 01:53:41;;;;;;;1999.90;999.90;;;;;;;6.05;73.18;98977.53;5017578;28;20537;-65
2020/12/17 01:56:16;;;;;;;1999.90;999.90;;;;;;;6.05;73.21;98980.28;5015118;28;20058;-66
2020/12/17 01:58:53;;;;;;;1999.90;999.90;;;;;;;6.05;73.10;98983.84;5018455;28;20049;-65
2020/12/17 02:01:23;;;;;;;1999.90;999.90;;;;;;;5.87;73.88;98982.50;5025270;28;20054;-65
2020/12/17 02:03:50;;;;;;;1999.90;999.90;;;;;;;5.75;74.13;98979.25;5011033;28;20501;-65
2020/12/17 02:06:16;;;;;;;1999.90;999.90;;;;;;;5.81;74.29;98981.69;5008567;28;20068;-65
2020/12/17 02:08:42;;;;;;;1999.90;999.90;;;;;;;5.87;73.73;98979.75;5010536;28;20049;-65
2020/12/17 02:11:10;;;;;;;1999.90;999.90;;;;;;;6.01;73.67;98979.19;5008277;28;20563;-65
2020/12/17 02:13:37;;;;;;;1999.90;999.90;;;;;;;5.66;74.73;98976.25;5009509;28;20056;-65
2020/12/17 02:16:04;;;;;;;1999.90;999.90;;;;;;;5.58;75.19;98974.91;5008311;28;20402;-65
2020/12/17 02:18:31;;;;;;;1999.90;999.90;;;;;;;5.71;74.75;98970.75;5007128;28;20077;-65
2020/12/17 02:20:57;;;;;;;1999.90;999.90;;;;;;;5.76;74.34;98972.66;5008898;28;20111;-65
2020/12/17 02:23:24;;;;;;;1999.90;999.90;;;;;;;5.84;73.99;98974.03;5008621;28;20042;-65
2020/12/17 02:25:51;;;;;;;1999.90;999.90;;;;;;;5.65;74.46;98969.94;5010093;28;20558;-65
2020/12/17 02:28:20;;;;;;;1999.90;999.90;;;;;;;5.79;74.22;98974.84;5007891;28;20089;-65
2020/12/17 02:30:47;;;;;;;1999.90;999.90;;;;;;;5.56;74.56;98968.03;5017351;28;20054;-65
2020/12/17 02:33:13;;;;;;;1999.90;999.90;;;;;;;5.50;74.93;98969.16;5016053;28;20636;-65
2020/12/17 02:35:41;;;;;;;1999.90;999.90;;;;;;;5.44;75.21;98969.16;5013637;28;20049;-65
2020/12/17 02:38:07;;;;;;;1999.90;999.90;;;;;;;5.62;74.66;98970.47;5017781;28;20373;-65
2020/12/17 02:40:34;;;;;;;1999.90;999.90;;;;;;;5.53;74.92;98971.34;5012423;28;20080;-65
2020/12/17 02:43:01;;;;;;;1999.90;999.90;;;;;;;5.51;74.64;98963.41;5024759;28;20053;-65
2020/12/17 02:45:27;;;;;;;1999.90;999.90;;;;;;;5.62;74.36;98962.25;5024403;28;20053;-65
2020/12/17 02:47:54;;;;;;;1999.90;999.90;;;;;;;5.54;74.76;98968.31;5025017;28;20436;-65
2020/12/17 02:50:20;;;;;;;1999.90;999.90;;;;;;;5.50;74.70;98966.41;5025153;28;20388;-65
2020/12/17 02:52:46;;;;;;;1999.90;999.90;;;;;;;5.60;74.31;98960.91;5024577;28;20057;-65
2020/12/17 02:55:12;;;;;;;1999.90;999.90;;;;;;;5.49;74.59;98960.09;5025126;28;20060;-66
2020/12/17 02:57:39;;;;;;;1999.90;999.90;;;;;;;5.42;75.01;98962.31;5024081;28;20049;-65
2020/12/17 03:00:07;;;;;;;1999.90;999.90;;;;;;;5.34;75.48;98966.41;5024782;28;20053;-65
2020/12/17 03:02:33;;;;;;;1999.90;999.90;;;;;;;5.53;74.59;98966.66;5024959;28;20405;-66
2020/12/17 03:05:00;;;;;;;1999.90;999.90;;;;;;;5.43;74.95;98966.69;5024613;28;20054;-66
2020/12/17 03:07:26;;;;;;;1999.90;999.90;;;;;;;5.42;74.98;98968.63;5024909;28;20064;-65
2020/12/17 03:09:52;;;;;;;1999.90;999.90;;;;;;;5.24;75.07;98971.91;5024333;28;20548;-65
2020/12/17 03:12:18;;;;;;;1999.90;999.90;;;;;;;5.25;75.71;98970.81;5024299;28;20049;-66
2020/12/17 03:14:45;;;;;;;1999.90;999.90;;;;;;;5.31;75.71;98974.38;5024557;28;20057;-65
2020/12/17 03:17:11;;;;;;;1999.90;999.90;;;;;;;5.43;75.22;98972.16;5024217;28;20729;-65
2020/12/17 03:19:37;;;;;;;1999.90;999.90;;;;;;;5.47;75.13;98971.34;5024482;28;20052;-65
2020/12/17 03:22:03;;;;;;;1999.90;999.90;;;;;;;5.65;74.41;98966.38;5024647;28;20445;-65
2020/12/17 03:24:29;;;;;;;1999.90;999.90;;;;;;;5.72;74.39;98968.84;5024338;28;20472;-65
2020/12/17 03:26:55;;;;;;;1999.90;999.90;;;;;;;5.52;74.44;98972.44;5024353;28;20272;-65
2020/12/17 03:29:21;;;;;;;1999.90;999.90;;;;;;;5.26;75.96;98972.47;5022211;28;20114;-65
2020/12/17 03:31:47;;;;;;;1999.90;999.90;;;;;;;5.36;75.60;98966.16;5024035;28;20045;-65
2020/12/17 03:34:14;;;;;;;1999.90;999.90;;;;;;;5.43;75.44;98966.69;5024574;28;20473;-65
2020/12/17 03:36:40;;;;;;;1999.90;999.90;;;;;;;5.39;75.70;98977.41;5024237;28;20053;-65
2020/12/17 03:39:06;;;;;;;1999.90;999.90;;;;;;;5.32;75.93;98976.84;5024315;28;20057;-65
2020/12/17 03:41:32;;;;;;;1999.90;999.90;;;;;;;5.35;75.75;98970.81;5024286;28;20049;-65
2020/12/17 03:43:58;;;;;;;1999.90;999.90;;;;;;;5.20;76.56;98973.59;5024410;28;20065;-65
2020/12/17 03:46:24;;;;;;;1999.90;999.90;;;;;;;5.11;77.14;98971.38;5024429;28;20103;-65
2020/12/17 03:48:51;;;;;;;1999.90;999.90;;;;;;;5.30;76.12;98979.06;5024548;28;20467;-65
2020/12/17 03:51:17;;;;;;;1999.90;999.90;;;;;;;5.44;75.88;98976.56;5024321;28;20100;-65
2020/12/17 03:53:43;;;;;;;1999.90;999.90;;;;;;;5.63;75.10;98974.88;5023941;28;20099;-66
2020/12/17 03:56:09;;;;;;;1999.90;999.90;;;;;;;5.50;75.49;98980.13;5023899;28;20045;-65
2020/12/17 03:58:35;;;;;;;1999.90;999.90;;;;;;;5.64;75.40;98973.78;5024322;28;20054;-65
2020/12/17 04:01:02;;;;;;;1999.90;999.90;;;;;;;5.82;74.51;98979.75;5024220;28;20045;-65
2020/12/17 04:03:28;;;;;;;1999.90;999.90;;;;;;;5.70;74.59;98971.03;5024401;28;20041;-65
2020/12/17 04:05:54;;;;;;;1999.90;999.90;;;;;;;5.80;74.46;98969.06;5024290;28;20080;-65
2020/12/17 04:08:20;;;;;;;1999.90;999.90;;;;;;;5.73;74.77;98967.72;5022744;28;20481;-65
2020/12/17 04:10:46;;;;;;;1999.90;999.90;;;;;;;5.68;74.58;98967.75;5024102;28;20049;-66
2020/12/17 04:13:13;;;;;;;1999.90;999.90;;;;;;;5.62;75.02;98961.44;5023975;28;20095;-65
2020/12/17 04:15:40;;;;;;;1999.90;999.90;;;;;;;5.46;75.86;98960.66;5024205;28;21074;-65
2020/12/17 04:18:06;;;;;;;1999.90;999.90;;;;;;;5.37;75.81;98967.78;5024178;28;20065;-65
2020/12/17 04:20:32;;;;;;;1999.90;999.90;;;;;;;5.35;76.10;98961.78;5024429;28;20504;-65
2020/12/17 04:22:58;;;;;;;1999.90;999.90;;;;;;;4.94;77.73;98959.84;5023512;28;20501;-65
2020/12/17 04:25:24;;;;;;;1999.90;999.90;;;;;;;4.85;78.25;98962.31;5024024;28;20049;-65
2020/12/17 04:27:50;;;;;;;1999.90;999.90;;;;;;;5.05;77.59;98961.50;5023889;28;20462;-65
2020/12/17 04:30:17;;;;;;;1999.90;999.90;;;;;;;5.20;77.36;98968.91;5025504;28;20045;-65
2020/12/17 04:32:43;;;;;;;1999.90;999.90;;;;;;;5.22;77.14;98965.91;5027581;28;20054;-66
2020/12/17 04:35:09;;;;;;;1999.90;999.90;;;;;;;5.50;75.82;98967.22;5026938;28;20107;-66
2020/12/17 04:37:35;;;;;;;1999.90;999.90;;;;;;;5.16;76.79;98973.28;5027237;28;20394;-65
2020/12/17 04:40:01;;;;;;;1999.90;999.90;;;;;;;5.43;76.38;98972.16;5027621;28;20053;-65
2020/12/17 04:42:30;;;;;;;1999.90;999.90;;;;;;;5.64;75.37;98976.53;5027289;28;20059;-66
2020/12/17 04:45:00;;;;;;;1999.90;999.90;;;;;;;5.47;75.85;98973.28;5027363;28;20065;-65
2020/12/17 04:47:29;;;;;;;1999.90;999.90;;;;;;;5.27;76.34;98983.16;5027790;28;20053;-65
2020/12/17 04:50:04;;;;;;;1999.90;999.90;;;;;;;5.70;75.32;98982.84;5027052;28;20053;-65
2020/12/17 04:52:31;;;;;;;1999.90;999.90;;;;;;;5.84;74.72;98983.06;5026952;28;20095;-66
2020/12/17 04:54:58;;;;;;;1999.90;999.90;;;;;;;5.84;74.46;98982.25;5027075;28;20120;-65
2020/12/17 04:57:26;;;;;;;1999.90;999.90;;;;;;;5.81;74.45;98989.13;5026854;28;20049;-65
2020/12/17 04:59:52;;;;;;;1999.90;999.90;;;;;;;5.85;74.26;98981.97;5023828;28;20520;-65
2020/12/17 05:02:21;;;;;;;1999.90;999.90;;;;;;;5.88;74.23;98988.81;5020616;28;20490;-65
2020/12/17 05:04:49;;;;;;;1999.90;999.90;;;;;;;5.80;74.37;98993.75;5023082;28;20114;-65
2020/12/17 05:07:20;;;;;;;1999.90;999.90;;;;;;;5.92;74.07;98990.72;5015832;28;20520;-65
2020/12/17 05:09:47;;;;;;;1999.90;999.90;;;;;;;5.55;75.36;98985.59;5009658;28;20495;-66
2020/12/17 05:12:14;;;;;;;1999.90;999.90;;;;;;;5.37;75.66;98987.00;5021694;28;20492;-65
2020/12/17 05:14:41;;;;;;;1999.90;999.90;;;;;;;5.49;75.89;98987.53;5022750;28;20053;-65
2020/12/17 05:17:08;;;;;;;1999.90;999.90;;;;;;;5.46;75.64;98982.59;5022379;28;20049;-65
2020/12/17 05:19:35;;;;;;;1999.90;999.90;;;;;;;5.69;74.87;98978.44;5022932;28;20084;-66
2020/12/17 05:22:04;;;;;;;1999.90;999.90;;;;;;;5.00;77.04;98983.47;5022994;28;20139;-65
2020/12/17 05:24:31;;;;;;;1999.90;999.90;;;;;;;5.35;76.15;98975.50;5023335;28;20041;-65
2020/12/17 05:26:58;;;;;;;1999.90;999.90;;;;;;;5.65;75.08;98980.91;5023065;28;20053;-65
2020/12/17 05:29:25;;;;;;;1999.90;999.90;;;;;;;5.63;75.13;98974.88;5023069;28;20049;-65
2020/12/17 05:31:52;;;;;;;1999.90;999.90;;;;;;;5.35;75.85;98980.97;5022831;28;20131;-65
2020/12/17 05:34:19;;;;;;;1999.90;999.90;;;;;;;5.54;75.24;98990.28;5022639;28;20119;-65
2020/12/17 05:36:46;;;;;;;1999.90;999.90;;;;;;;5.47;75.72;98984.25;5022313;28;20436;-66
2020/12/17 05:39:14;;;;;;;1999.90;999.90;;;;;;;5.55;75.29;98994.66;5021148;28;20104;-65
2020/12/17 05:41:42;;;;;;;1999.90;999.90;;;;;;;5.31;75.82;98988.09;5020063;28;20560;-65
2020/12/17 05:44:26;;;;;;;1999.90;999.90;;;;;;;5.33;76.05;98991.38;5013888;28;20080;-65
2020/12/17 05:46:53;;;;;;;1999.90;999.90;;;;;;;5.31;75.73;98996.34;5020709;28;20061;-66
2020/12/17 05:49:22;;;;;;;1999.90;999.90;;;;;;;5.32;75.82;98995.25;5021270;28;20084;-65
2020/12/17 05:51:50;;;;;;;1999.90;999.90;;;;;;;5.01;76.57;98987.00;5021363;28;20390;-65
2020/12/17 05:54:25;;;;;;;1999.90;999.90;;;;;;;5.29;75.67;98991.94;5021086;28;20740;-65
2020/12/17 05:57:09;;;;;;;1999.90;999.90;;;;;;;4.83;76.59;98991.09;5021684;28;20073;-65
2020/12/17 05:59:35;;;;;;;1999.90;999.90;;;;;;;5.13;76.40;98990.28;5022445;28;20538;-65
2020/12/17 06:02:28;;;;;;;1999.90;999.90;;;;;;;5.32;75.68;98992.50;5022525;28;20056;-65
2020/12/17 06:05:05;;;;;;;1999.90;999.90;;;;;;;5.42;74.92;98992.50;5011153;28;20152;-65
2020/12/17 06:07:40;;;;;;;1999.90;999.90;;;;;;;5.50;74.75;98988.34;5021982;28;20452;-65
2020/12/17 06:10:23;;;;;;;1999.90;999.90;;;;;;;5.40;75.36;98983.69;5022679;28;20606;-64
2020/12/17 06:12:53;;;;;;;1999.90;999.90;;;;;;;5.25;75.27;98985.34;5021736;28;20454;-65
2020/12/17 06:15:21;;;;;;;1999.90;999.90;;;;;;;5.33;75.16;98994.13;5022141;28;20060;-65
2020/12/17 06:17:58;;;;;;;1999.90;999.90;;;;;;;5.08;75.69;98996.59;5021672;28;20053;-64
2020/12/17 06:20:27;;;;;;;1999.90;999.90;;;;;;;5.30;75.07;98998.25;5022488;28;20064;-64
2020/12/17 06:23:03;;;;;;;1999.90;999.90;;;;;;;5.65;74.13;99004.78;5021716;28;20053;-64
2020/12/17 06:25:31;;;;;;;1999.90;999.90;;;;;;;5.85;73.21;99012.16;5020725;28;20131;-64
2020/12/17 06:27:57;;;;;;;1999.90;999.90;;;;;;;5.84;73.00;99010.50;5021320;28;20053;-65
2020/12/17 06:30:32;;;;;;;1999.90;999.90;;;;;;;5.62;73.94;99014.38;5022248;28;20099;-64
2020/12/17 06:33:04;;;;;;;1999.90;999.90;;;;;;;5.43;74.18;99011.41;5021060;28;20056;-64
2020/12/17 06:35:39;;;;;;;1999.90;999.90;;;;;;;5.57;73.87;99017.16;5022157;28;20055;-64
2020/12/17 06:38:12;;;;;;;1999.90;999.90;;;;;;;5.42;74.19;99019.91;5021799;28;20576;-65
2020/12/17 06:40:38;;;;;;;1999.90;999.90;;;;;;;5.53;73.92;99029.78;5022628;28;20099;-64
2020/12/17 06:43:12;;;;;;;1999.90;999.90;;;;;;;5.37;74.51;99028.13;5021970;28;20049;-64
2020/12/17 06:45:39;;;;;;;1999.90;999.90;;;;;;;5.65;73.35;99034.97;5021808;28;20068;-64
2020/12/17 06:48:29;;;;;;;1999.90;999.90;;;;;;;5.68;73.42;99041.84;5022384;28;20305;-64
2020/12/17 06:50:55;;;;;;;1999.90;999.90;;;;;;;5.55;73.68;99041.31;5022209;28;20042;-64
2020/12/17 06:53:39;;;;;;;1999.90;999.90;;;;;;;5.48;73.73;99035.28;5021396;28;20091;-64
2020/12/17 06:56:05;;;;;;;1999.90;999.90;;;;;;;5.69;73.53;99046.25;5022409;28;20377;-64
2020/12/17 06:58:32;;;;;;;1999.90;999.90;;;;;;;5.74;73.08;99043.47;5021726;28;20059;-64
2020/12/17 07:00:58;;;;;;;1999.90;999.90;;;;;;;5.77;72.57;99045.66;5021869;28;20095;-64
2020/12/17 07:03:47;;;;;;;1999.90;999.90;;;;;;;5.62;73.53;99047.31;5021725;28;20192;-64
2020/12/17 07:06:21;;;;;;;1999.90;999.90;;;;;;;5.84;73.00;99039.91;5005022;28;20112;-64
2020/12/17 07:08:50;;;;;;;1999.90;999.90;;;;;;;5.51;73.51;99039.38;5002626;28;20580;-65
2020/12/17 07:11:34;;;;;;;1999.90;999.90;;;;;;;5.39;74.61;99053.34;5003375;28;20136;-64
2020/12/17 07:14:01;;;;;;;1999.90;999.90;;;;;;;5.37;74.40;99050.06;5002690;28;20163;-65
2020/12/17 07:16:27;;;;;;;1999.90;999.90;;;;;;;5.71;73.63;99050.31;5004105;28;20472;-65
2020/12/17 07:19:16;;;;;;;1999.90;999.90;;;;;;;5.72;73.37;99051.16;5002729;28;20060;-65
2020/12/17 07:21:42;;;;;;;1999.90;999.90;;;;;;;5.67;73.31;99043.75;5002776;28;20080;-65
2020/12/17 07:24:21;;;;;;;1999.90;999.90;;;;;;;5.67;73.28;99053.91;5002535;28;20053;-65
2020/12/17 07:26:48;;;;;;;1999.90;999.90;;;;;;;5.45;73.93;99041.31;5002500;28;20545;-64
2020/12/17 07:29:14;;;;;;;1999.90;999.90;;;;;;;5.91;72.66;99045.91;5002697;28;20210;-65
2020/12/17 07:31:40;;;;;;;1999.90;999.90;;;;;;;6.10;72.16;99041.50;5003143;28;20057;-64
2020/12/17 07:34:19;;;;;;;1999.90;999.90;;;;;;;5.26;73.79;99041.84;5002439;28;20580;-64
2020/12/17 07:36:49;;;;;;;1999.90;999.90;;;;;;;5.24;74.67;99040.47;5003467;28;20054;-63
2020/12/17 07:39:16;;;;;;;1999.90;999.90;;;;;;;5.33;74.83;99038.84;5021894;28;20100;-64
2020/12/17 07:41:42;;;;;;;1999.90;999.90;;;;;;;5.53;73.76;99040.75;5020102;28;20057;-64
2020/12/17 07:44:09;;;;;;;1999.90;999.90;;;;;;;5.50;74.35;99037.75;5021082;28;20057;-64
2020/12/17 07:46:41;;;;;;;1999.90;999.90;;;;;;;6.05;72.35;99043.44;5021568;28;20057;-64
2020/12/17 08:40:05;;;;;;;1999.90;999.90;;;;;;;5.55;76.17;99057.78;5124137;27;20755;-64
2020/12/17 08:42:34;;;;;;;1999.90;999.90;;;;;;;5.45;75.82;99074.22;5123621;27;20058;-64
2020/12/17 08:45:10;;;;;;;1999.90;999.90;;;;;;;5.39;75.47;99069.81;5123276;27;20548;-64
2020/12/17 08:47:41;;;;;;;1999.90;999.90;;;;;;;5.16;76.49;99074.75;5123601;27;20071;-64
2020/12/17 08:50:09;;;;;;;1999.90;999.90;;;;;;;5.46;75.45;99082.19;5116841;27;20388;-64
2020/12/17 08:52:36;;;;;;;1999.90;999.90;;;;;;;5.33;75.76;99079.16;5103259;28;20056;-64
2020/12/17 08:55:04;;;;;;;1999.90;999.90;;;;;;;5.25;76.42;99081.31;5123514;27;20399;-64
2020/12/17 08:57:31;;;;;;;1999.90;999.90;;;;;;;5.28;76.31;99077.22;5123448;27;20059;-65
2020/12/17 08:59:58;;;;;;;1999.90;999.90;;;;;;;5.19;76.72;99070.66;5123067;27;20138;-64
2020/12/17 09:02:29;;;;;;;1999.90;999.90;;;;;;;4.80;77.83;99074.69;5124009;27;20062;-64
2020/12/17 09:05:01;;;;;;;1999.90;999.90;;;;;;;4.96;77.71;99077.44;5113172;27;20051;-64
2020/12/17 09:07:29;;;;;;;1999.90;999.90;;;;;;;4.96;77.40;99081.03;5108870;27;20044;-64
2020/12/17 09:10:08;;;;;;;1999.90;999.90;;;;;;;5.35;76.18;99071.47;5110712;28;20055;-64
2020/12/17 09:12:35;;;;;;;1999.90;999.90;;;;;;;5.57;75.64;99072.03;5108413;27;20055;-64
2020/12/17 09:15:09;;;;;;;1999.90;999.90;;;;;;;5.55;75.43;99074.22;5110476;27;20530;-64
2020/12/17 09:17:37;;;;;;;1999.90;999.90;;;;;;;5.52;75.53;99074.75;5109323;27;20454;-64
2020/12/17 09:20:17;;;;;;;1999.90;999.90;;;;;;;5.54;75.62;99077.22;5104515;28;20519;-64
2020/12/17 09:22:45;;;;;;;1999.90;999.90;;;;;;;5.84;75.36;99081.88;5109097;27;20418;-64
2020/12/17 09:25:13;;;;;;;1999.90;999.90;;;;;;;5.74;74.85;99077.22;5109460;28;20097;-64
2020/12/17 09:27:40;;;;;;;1999.90;999.90;;;;;;;5.22;76.51;99076.38;5110199;27;20048;-64
2020/12/17 09:30:13;;;;;;;1999.90;999.90;;;;;;;5.39;76.10;99075.31;5108167;28;20051;-64
2020/12/17 09:32:53;;;;;;;1999.90;999.90;;;;;;;5.26;75.80;99074.75;5111098;27;20487;-64
2020/12/17 09:35:22;;;;;;;1999.90;999.90;;;;;;;5.42;75.83;99078.34;5109029;28;20292;-64
2020/12/17 09:38:08;;;;;;;1999.90;999.90;;;;;;;5.45;75.35;99071.50;5113438;27;20043;-64
2020/12/17 09:40:37;;;;;;;1999.90;999.90;;;;;;;5.32;75.46;99080.25;5111476;27;20190;-64
2020/12/17 09:43:15;;;;;;;1999.90;999.90;;;;;;;5.71;74.66;99074.22;5109343;28;20047;-64
2020/12/17 09:45:47;;;;;;;1999.90;999.90;;;;;;;5.90;74.46;99083.50;5108883;28;20340;-64
2020/12/17 09:48:19;;;;;;;1999.90;999.90;;;;;;;5.59;75.64;99079.97;5108985;28;20052;-65
2020/12/17 09:50:51;;;;;;;1999.90;999.90;;;;;;;5.85;73.82;99072.56;5108966;28;20540;-64
2020/12/17 09:53:19;;;;;;;1999.90;999.90;;;;;;;5.44;75.41;99078.06;5108438;28;20183;-63
2020/12/17 09:55:45;;;;;;;1999.90;999.90;;;;;;;5.50;74.95;99074.22;5108628;28;20064;-64
2020/12/17 09:58:12;;;;;;;1999.90;999.90;;;;;;;5.39;76.07;99078.03;5109132;28;20075;-64
2020/12/17 10:00:38;;;;;;;1999.90;999.90;;;;;;;5.54;75.04;99072.56;5108753;28;20055;-63
2020/12/17 10:03:04;;;;;;;1999.90;999.90;;;;;;;5.28;76.26;99069.84;5108817;28;20043;-64
2020/12/17 10:05:30;;;;;;;1999.90;999.90;;;;;;;4.97;77.28;99068.13;5108442;28;20077;-63
2020/12/17 10:07:56;;;;;;;1999.90;999.90;;;;;;;4.37;79.33;99068.50;5108178;28;20062;-63
2020/12/17 10:10:23;;;;;;;1999.90;999.90;;;;;;;4.85;78.02;99066.47;5108850;28;20077;-63
2020/12/17 10:12:49;;;;;;;1999.90;999.90;;;;;;;4.75;77.75;99071.94;5108724;28;20085;-64
2020/12/17 10:15:15;;;;;;;1999.90;999.90;;;;;;;4.86;78.16;99065.38;5108664;28;20047;-64
2020/12/17 10:17:41;;;;;;;1999.90;999.90;;;;;;;5.23;77.11;99069.81;5108494;28;20105;-65
2020/12/17 10:20:10;;;;;;;1999.90;999.90;;;;;;;4.66;77.81;99068.91;5109002;28;20044;-64
2020/12/17 10:22:45;;;;;;;1999.90;999.90;;;;;;;5.09;77.30;99075.03;5108309;28;20411;-62
2020/12/17 10:25:12;;;;;;;1999.90;999.90;;;;;;;4.78;77.57;99071.41;5108291;28;20410;-65
2020/12/17 10:27:39;;;;;;;1999.90;999.90;;;;;;;4.44;78.77;99068.25;5097912;28;20133;-65
2020/12/17 10:30:06;;;;;;;1999.90;999.90;;;;;;;4.71;78.94;99070.81;5105421;28;20043;-65
2020/12/17 10:32:33;;;;;;;1999.90;999.90;;;;;;;4.58;78.88;99066.66;5107854;28;20403;-65
2020/12/17 10:35:00;;;;;;;1999.90;999.90;;;;;;;4.81;78.14;99059.03;5107397;28;20060;-65
2020/12/17 10:37:27;;;;;;;1999.90;999.90;;;;;;;4.41;79.16;99066.88;5107455;28;20277;-66
2020/12/17 10:39:53;;;;;;;1999.90;999.90;;;;;;;4.86;78.48;99062.63;5108003;28;20059;-66
2020/12/17 10:42:21;;;;;;;1999.90;999.90;;;;;;;4.87;78.35;99058.81;5088659;28;20093;-66
2020/12/17 10:44:51;;;;;;;1999.90;999.90;;;;;;;5.00;77.69;99057.47;5087942;28;20115;-67
2020/12/17 10:47:18;;;;;;;1999.90;999.90;;;;;;;4.90;77.67;99058.25;5087628;28;20093;-66
2020/12/17 10:49:48;;;;;;;1999.90;999.90;;;;;;;4.22;80.33;99059.13;5087444;28;20047;-67
2020/12/17 10:52:14;;;;;;;1999.90;999.90;;;;;;;4.66;79.13;99062.56;5086878;28;20097;-67
2020/12/17 10:54:41;;;;;;;1999.90;999.90;;;;;;;4.79;78.66;99062.06;5087734;28;20093;-67
2020/12/17 10:57:07;;;;;;;1999.90;999.90;;;;;;;4.48;80.09;99056.50;5087471;28;20060;-65
2020/12/17 10:59:33;;;;;;;1999.90;999.90;;;;;;;4.05;80.28;99058.50;5085766;28;20067;-65
2020/12/17 11:02:00;;;;;;;1999.90;999.90;;;;;;;4.09;80.57;99048.66;5087151;28;20055;-66
2020/12/17 11:04:29;;;;;;;1999.90;999.90;;;;;;;4.46;80.49;99047.72;5086939;28;20143;-66
2020/12/17 11:06:56;;;;;;;1999.90;999.90;;;;;;;4.70;78.49;99047.25;5087342;28;20519;-66
2020/12/17 11:09:27;;;;;;;1999.90;999.90;;;;;;;4.41;79.10;99051.28;5087112;28;20059;-66
2020/12/17 11:11:53;;;;;;;1999.90;999.90;;;;;;;4.07;80.65;99041.81;5087972;28;20113;-67
2020/12/17 11:14:19;;;;;;;1999.90;999.90;;;;;;;4.10;81.36;99050.31;5087384;28;20535;-66
2020/12/17 11:16:50;;;;;;;1999.90;999.90;;;;;;;3.70;82.40;99040.78;5086959;28;20070;-67
2020/12/17 11:19:17;;;;;;;1999.90;999.90;;;;;;;4.47;80.52;99041.16;5087405;28;20074;-65
2020/12/17 11:21:43;;;;;;;1999.90;999.90;;;;;;;4.86;79.37;99035.22;5087303;28;20097;-65
2020/12/17 11:24:10;;;;;;;1999.90;999.90;;;;;;;4.50;79.84;99032.41;5087234;28;20105;-65
2020/12/17 11:26:46;;;;;;;1999.90;999.90;;;;;;;4.79;78.93;99034.66;5086561;28;20161;-65
2020/12/17 11:29:13;;;;;;;1999.90;999.90;;;;;;;4.51;80.28;99031.31;5086508;28;20129;-65
2020/12/17 11:31:44;;;;;;;1999.90;999.90;;;;;;;4.22;80.69;99031.75;5086788;28;20051;-65
2020/12/17 11:34:12;;;;;;;1999.90;999.90;;;;;;;4.54;79.72;99019.81;5086805;28;20131;-65
2020/12/17 11:36:38;;;;;;;1999.90;999.90;;;;;;;4.62;80.22;99017.66;5085250;28;20048;-66
2020/12/17 11:39:04;;;;;;;1999.90;999.90;;;;;;;4.46;80.30;99020.34;5104547;28;20388;-66
2020/12/17 11:41:30;;;;;;;1999.90;999.90;;;;;;;4.55;80.81;99018.72;5107469;28;20043;-66
2020/12/17 11:43:58;;;;;;;1999.90;999.90;;;;;;;4.69;79.82;99005.34;5106808;28;20050;-66
2020/12/17 11:46:24;;;;;;;1999.90;999.90;;;;;;;4.75;79.58;99012.47;5106559;28;20492;-66
2020/12/17 11:48:50;;;;;;;1999.90;999.90;;;;;;;4.28;80.76;99007.94;5107109;28;20052;-66
2020/12/17 11:51:16;;;;;;;1999.90;999.90;;;;;;;4.24;81.28;99009.56;5106657;28;20104;-65
2020/12/17 11:53:43;;;;;;;1999.90;999.90;;;;;;;4.36;81.20;99004.72;5106698;28;20134;-66
2020/12/17 11:56:13;;;;;;;1999.90;999.90;;;;;;;4.71;79.95;99010.53;5106555;28;20096;-66
2020/12/17 11:58:40;;;;;;;1999.90;999.90;;;;;;;4.33;81.10;99010.72;5106305;28;20381;-66